Time;durP1;ratioP1;P1;durP2;ratioP2;P2;SDS_P1;SDS_P2;PMS_P1;PMS_P2;Temp;Humidity;BMP_temperature;BMP_pressure;BME280_temperature;BME280_humidity;BME280_pressure;Samples;Min_cycle;Max_cycle;Signal;HPM_P1;HPM_P2
2021/01/19 00:01:14;;;;;;;157.57;52.13;;;;;;;-7.44;75.36;97574.78;5004308;28;20436;-61
2021/01/19 00:03:40;;;;;;;115.43;39.15;;;;;;;-10.71;74.70;97046.75;5005015;28;20033;-62
2021/01/19 00:06:06;;;;;;;89.00;31.92;;;;;;;-7.23;74.66;97612.56;5002944;28;20034;-61
2021/01/19 00:08:31;;;;;;;70.90;26.55;;;;;;;-8.11;74.54;97469.88;5004503;28;20057;-62
2021/01/19 00:11:05;;;;;;;65.20;23.67;;;;;;;-7.37;74.28;97587.03;5002776;28;20037;-62
2021/01/19 00:13:31;;;;;;;62.38;23.20;;;;;;;-7.34;74.23;97593.78;5004668;28;20045;-64
2021/01/19 00:15:56;;;;;;;51.35;18.30;;;;;;;-7.28;74.39;97608.94;5004296;28;20535;-62
2021/01/19 00:18:22;;;;;;;41.80;16.23;;;;;;;-7.26;74.38;97606.84;5004893;28;20038;-64
2021/01/19 00:20:48;;;;;;;44.50;16.88;;;;;;;-7.30;74.68;97600.31;5004531;28;20081;-62
2021/01/19 00:23:13;;;;;;;51.85;18.45;;;;;;;-7.42;74.95;97575.34;5004885;28;20048;-62
2021/01/19 00:25:40;;;;;;;55.05;18.42;;;;;;;-8.10;76.70;97540.56;5004067;28;20030;-62
2021/01/19 00:28:06;;;;;;;65.22;23.92;;;;;;;-7.93;76.71;97554.84;5003350;28;20476;-62
2021/01/19 00:30:31;;;;;;;94.57;31.73;;;;;;;-7.56;76.50;97584.81;5004187;28;20120;-62
2021/01/19 00:32:57;;;;;;;51.75;18.98;;;;;;;-7.82;76.76;97547.78;5004675;28;20053;-61
2021/01/19 00:35:22;;;;;;;68.72;24.77;;;;;;;-7.34;77.05;97620.69;4988010;28;20146;-62
2021/01/19 00:37:47;;;;;;;64.57;23.65;;;;;;;-7.34;77.08;97618.00;4983391;28;20034;-61
2021/01/19 00:40:14;;;;;;;119.05;42.72;;;;;;;-7.91;77.16;97533.91;4984733;28;20041;-62
2021/01/19 00:42:39;;;;;;;114.63;42.95;;;;;;;-7.26;76.93;97612.22;4990327;28;20017;-63
2021/01/19 00:45:05;;;;;;;53.80;22.83;;;;;;;-7.28;75.71;97625.91;5004510;28;20045;-63
2021/01/19 00:47:30;;;;;;;70.82;25.42;;;;;;;-7.79;74.51;97531.16;5004155;28;20041;-63
2021/01/19 00:49:56;;;;;;;62.92;26.10;;;;;;;-7.17;74.63;97616.13;5004711;28;20031;-62
2021/01/19 00:52:21;;;;;;;61.20;24.70;;;;;;;-7.13;73.65;97612.72;5004070;28;20104;-63
2021/01/19 00:54:47;;;;;;;66.63;24.95;;;;;;;-7.16;73.90;97640.09;5004339;28;20045;-64
2021/01/19 00:57:12;;;;;;;73.65;25.58;;;;;;;-7.19;74.22;97602.91;5003756;28;20029;-63
2021/01/19 00:59:37;;;;;;;75.63;29.02;;;;;;;-7.21;74.65;97606.94;5004332;28;20033;-63
2021/01/19 01:02:03;;;;;;;72.05;27.58;;;;;;;-7.20;74.70;97619.31;5002114;28;20084;-62
2021/01/19 01:04:28;;;;;;;68.20;28.42;;;;;;;-7.34;75.08;97610.75;5004564;28;20128;-62
2021/01/19 01:06:54;;;;;;;83.85;34.08;;;;;;;-7.47;74.74;97594.09;5003518;28;20033;-62
2021/01/19 01:09:20;;;;;;;88.38;37.55;;;;;;;-7.58;74.78;97597.66;5018925;28;20104;-62
2021/01/19 01:11:45;;;;;;;85.40;34.40;;;;;;;-7.38;74.98;97612.28;5018918;28;20630;-62
2021/01/19 01:14:13;;;;;;;59.70;25.10;;;;;;;-7.46;75.24;97617.25;5002642;28;20069;-62
2021/01/19 01:16:39;;;;;;;59.75;22.23;;;;;;;-7.49;74.97;97607.00;5003298;28;20076;-63
2021/01/19 01:19:06;;;;;;;101.70;37.70;;;;;;;-8.04;74.81;97529.66;5007895;28;20038;-62
2021/01/19 01:21:39;;;;;;;77.28;27.25;;;;;;;-7.61;74.79;97619.66;5007420;28;20068;-62
2021/01/19 01:24:09;;;;;;;48.75;19.13;;;;;;;-7.62;75.07;97618.03;5006273;28;20504;-63
2021/01/19 01:26:35;;;;;;;35.67;12.68;;;;;;;-8.35;74.89;97514.06;5005686;28;20066;-63
2021/01/19 01:29:01;;;;;;;44.60;16.33;;;;;;;-7.65;75.20;97629.28;5005912;28;20061;-63
2021/01/19 01:31:26;;;;;;;40.53;16.17;;;;;;;-8.29;75.27;97564.13;4988952;28;20046;-62
2021/01/19 01:33:52;;;;;;;43.03;15.98;;;;;;;-7.66;75.43;97622.25;5007534;28;20049;-63
2021/01/19 01:36:17;;;;;;;44.15;18.52;;;;;;;-8.36;75.28;97525.06;5005441;28;20033;-62
2021/01/19 01:38:43;;;;;;;42.03;16.63;;;;;;;-7.62;75.23;97612.66;5007619;28;20124;-62
2021/01/19 01:41:19;;;;;;;41.65;15.80;;;;;;;-7.69;75.32;97609.28;5006827;28;20421;-62
2021/01/19 01:43:45;;;;;;;50.70;17.92;;;;;;;-7.68;75.28;97602.88;5005768;28;20436;-62
2021/01/19 01:46:13;;;;;;;76.43;24.20;;;;;;;-7.75;73.97;97608.41;5004915;28;20034;-61
2021/01/19 01:48:42;;;;;;;55.47;20.10;;;;;;;-8.30;74.01;97519.50;5005476;28;20512;-62
2021/01/19 01:51:09;;;;;;;66.63;24.48;;;;;;;-7.87;74.34;97578.88;5004659;28;20034;-61
2021/01/19 01:53:37;;;;;;;62.60;22.67;;;;;;;-7.81;75.28;97620.91;5007337;28;20056;-61
2021/01/19 01:56:02;;;;;;;62.08;25.20;;;;;;;-8.58;75.71;97476.53;5005016;28;20030;-61
2021/01/19 01:58:28;;;;;;;67.47;25.92;;;;;;;-7.76;74.84;97611.34;5014657;28;20495;-63
2021/01/19 02:00:54;;;;;;;81.85;27.92;;;;;;;-7.72;75.62;97601.72;5006436;28;20026;-62
2021/01/19 02:03:20;;;;;;;75.50;28.02;;;;;;;-7.65;75.80;97607.78;5007013;28;20057;-62
2021/01/19 02:05:45;;;;;;;59.47;23.50;;;;;;;-7.69;75.79;97598.53;5004819;28;20516;-63
2021/01/19 02:08:37;;;;;;;57.20;21.17;;;;;;;-7.67;75.03;97594.56;5005010;28;20056;-62
2021/01/19 02:11:27;;;;;;;39.38;15.52;;;;;;;-7.78;75.18;97600.00;5004669;28;20040;-62
2021/01/19 02:14:29;;;;;;;41.65;16.30;;;;;;;-7.95;74.38;97551.59;5005325;28;20046;-62
2021/01/19 02:17:14;;;;;;;51.60;19.58;;;;;;;-7.68;74.22;97600.19;5006253;28;20096;-63
2021/01/19 02:20:01;;;;;;;46.33;17.40;;;;;;;-7.82;74.46;97602.34;5006868;28;20048;-61
2021/01/19 02:22:32;;;;;;;48.30;15.95;;;;;;;-7.87;75.28;97611.13;5006320;28;20599;-62
2021/01/19 02:25:16;;;;;;;41.67;14.77;;;;;;;-8.04;75.51;97594.16;5005488;28;20065;-62
2021/01/19 02:28:15;;;;;;;38.38;14.27;;;;;;;-8.00;75.45;97603.34;5006630;28;20037;-63
2021/01/19 02:31:24;;;;;;;48.83;17.48;;;;;;;-8.54;74.94;97528.72;5006095;28;20046;-62
2021/01/19 02:34:28;;;;;;;40.75;13.57;;;;;;;-8.38;76.27;97603.19;5006633;28;20038;-62
2021/01/19 02:37:12;;;;;;;34.75;12.65;;;;;;;-9.21;76.21;97435.53;4986462;28;20076;-62
2021/01/19 02:39:56;;;;;;;53.25;17.63;;;;;;;-8.26;76.90;97598.56;5006369;28;20046;-62
2021/01/19 02:42:26;;;;;;;64.15;23.10;;;;;;;-8.22;76.21;97599.69;5003978;28;20041;-61
2021/01/19 02:44:54;;;;;;;65.70;23.02;;;;;;;-8.29;75.94;97608.97;5006016;28;20041;-61
2021/01/19 02:47:20;;;;;;;80.95;31.73;;;;;;;-8.94;76.06;97522.50;5005638;28;20026;-61
2021/01/19 02:49:45;;;;;;;60.30;20.55;;;;;;;-9.23;76.60;97485.91;5006276;28;20034;-62
2021/01/19 02:52:15;;;;;;;58.28;18.45;;;;;;;-8.51;77.53;97587.31;5005571;28;20029;-63
2021/01/19 02:54:42;;;;;;;41.10;16.92;;;;;;;-8.36;76.97;97589.50;5006379;28;20100;-61
2021/01/19 02:57:26;;;;;;;49.58;17.77;;;;;;;-8.22;76.29;97597.00;5005416;28;20042;-62
2021/01/19 03:00:46;;;;;;;61.70;19.20;;;;;;;-8.29;75.88;97601.75;5005997;28;20100;-62
2021/01/19 03:03:12;;;;;;;50.58;18.45;;;;;;;-8.33;76.55;97608.63;4947764;28;20042;-62
2021/01/19 03:05:38;;;;;;;48.70;14.23;;;;;;;-8.28;75.74;97589.09;4991255;28;20038;-62
2021/01/19 03:08:05;;;;;;;54.75;18.60;;;;;;;-8.76;75.84;97525.03;5005646;28;20034;-61
2021/01/19 03:10:32;;;;;;;47.80;17.15;;;;;;;-8.92;75.55;97498.94;5005038;28;20049;-62
2021/01/19 03:12:59;;;;;;;42.30;15.20;;;;;;;-8.44;75.73;97566.50;5003825;28;20045;-62
2021/01/19 03:15:24;;;;;;;41.35;14.35;;;;;;;-11.61;75.36;97070.41;5003701;28;20085;-62
2021/01/19 03:17:50;;;;;;;35.85;12.88;;;;;;;-8.53;75.79;97624.31;5001121;28;20062;-62
2021/01/19 03:20:16;;;;;;;28.88;11.27;;;;;;;-8.55;76.48;97602.25;4985477;28;20037;-63
2021/01/19 03:22:42;;;;;;;36.85;12.93;;;;;;;-8.61;76.78;97603.19;4985951;28;20518;-62
2021/01/19 03:25:08;;;;;;;29.70;12.13;;;;;;;-8.57;76.19;97604.38;5000370;28;20038;-64
2021/01/19 03:27:33;;;;;;;30.70;10.82;;;;;;;-9.65;76.35;97454.94;4985786;28;20077;-62
2021/01/19 03:29:59;;;;;;;32.17;12.48;;;;;;;-9.69;76.37;97445.75;4986135;28;20058;-61
2021/01/19 03:32:24;;;;;;;34.88;12.38;;;;;;;-9.16;76.37;97534.88;4985039;28;20028;-62
2021/01/19 03:34:50;;;;;;;34.75;12.68;;;;;;;-8.74;76.69;97581.97;5016110;28;20766;-62
2021/01/19 03:37:15;;;;;;;37.42;13.85;;;;;;;-8.70;76.96;97610.00;4985335;28;20092;-62
2021/01/19 03:39:41;;;;;;;41.20;13.80;;;;;;;-8.76;77.25;97600.19;4984963;28;20042;-63
2021/01/19 03:42:06;;;;;;;33.65;13.55;;;;;;;-8.74;76.89;97603.44;5016247;28;20030;-63
2021/01/19 03:44:31;;;;;;;33.42;13.52;;;;;;;-8.90;77.47;97582.72;5014458;28;20038;-63
2021/01/19 03:46:57;;;;;;;41.47;14.13;;;;;;;-8.56;76.71;97621.28;5003092;28;20026;-63
2021/01/19 03:49:22;;;;;;;45.72;16.80;;;;;;;-8.49;76.31;97605.88;5005000;28;20060;-62
2021/01/19 03:51:48;;;;;;;38.85;14.55;;;;;;;-8.59;76.25;97595.72;5002866;28;20025;-62
2021/01/19 03:54:13;;;;;;;42.08;14.57;;;;;;;-8.76;76.28;97576.03;5005318;28;20095;-62
2021/01/19 03:56:39;;;;;;;32.20;13.07;;;;;;;-8.62;76.50;97596.22;5004610;28;20091;-62
2021/01/19 03:59:05;;;;;;;31.67;13.00;;;;;;;-8.65;76.71;97618.16;5003611;28;20048;-62
2021/01/19 04:01:31;;;;;;;33.22;12.63;;;;;;;-8.56;76.39;97627.47;5004643;28;20037;-63
2021/01/19 04:03:56;;;;;;;30.10;13.07;;;;;;;-8.71;76.14;97616.38;5005054;28;20048;-61
2021/01/19 04:06:22;;;;;;;33.08;12.82;;;;;;;-9.02;75.98;97552.38;5004312;28;20056;-61
2021/01/19 04:08:47;;;;;;;37.45;15.32;;;;;;;-9.70;74.99;97409.25;5004471;28;20057;-62
2021/01/19 04:11:13;;;;;;;46.75;17.63;;;;;;;-8.47;75.13;97620.69;5004560;28;20032;-62
2021/01/19 04:13:38;;;;;;;45.75;16.67;;;;;;;-8.37;74.70;97626.28;5003157;28;20072;-61
2021/01/19 04:16:04;;;;;;;42.35;15.35;;;;;;;-8.81;74.88;97554.47;5004301;28;20040;-62
2021/01/19 04:18:30;;;;;;;46.58;17.40;;;;;;;-8.32;75.16;97626.41;5004445;28;20034;-62
2021/01/19 04:20:55;;;;;;;65.28;21.90;;;;;;;-8.43;75.18;97627.22;5003873;28;20036;-61
2021/01/19 04:23:21;;;;;;;41.95;16.63;;;;;;;-8.37;74.72;97637.03;5002979;28;20077;-62
2021/01/19 04:25:48;;;;;;;33.58;13.48;;;;;;;-8.31;74.67;97637.94;5004179;28;20116;-62
2021/01/19 04:28:14;;;;;;;39.65;13.85;;;;;;;-8.55;74.32;97614.88;5003006;28;20048;-62
2021/01/19 04:30:43;;;;;;;47.10;16.65;;;;;;;-8.60;75.37;97630.88;5002663;28;20030;-61
2021/01/19 04:33:14;;;;;;;41.88;15.60;;;;;;;-9.50;75.12;97479.41;5004293;28;20160;-61
2021/01/19 04:35:40;;;;;;;48.00;14.55;;;;;;;-8.59;75.41;97627.94;5004277;28;20495;-62
2021/01/19 04:38:05;;;;;;;34.78;15.57;;;;;;;-8.77;75.32;97593.19;5004302;28;20029;-62
2021/01/19 04:40:31;;;;;;;48.72;17.58;;;;;;;-8.61;75.18;97608.56;5004246;28;20053;-63
2021/01/19 04:42:56;;;;;;;64.38;19.10;;;;;;;-8.93;73.95;97583.16;5004638;28;20060;-62
2021/01/19 04:45:24;;;;;;;57.40;21.30;;;;;;;-9.48;74.20;97474.63;5002751;28;20122;-62
2021/01/19 04:47:51;;;;;;;67.45;21.80;;;;;;;-8.53;74.96;97648.47;5004888;28;20034;-61
2021/01/19 04:50:16;;;;;;;64.97;22.63;;;;;;;-9.10;75.11;97555.41;4984885;28;20062;-61
2021/01/19 04:52:44;;;;;;;68.13;24.85;;;;;;;-9.21;74.76;97526.72;4987925;28;20113;-61
2021/01/19 04:55:15;;;;;;;70.32;23.15;;;;;;;-8.55;75.62;97645.22;4988032;28;20073;-62
2021/01/19 04:57:41;;;;;;;71.10;24.45;;;;;;;-8.60;74.76;97636.25;4988727;28;20100;-60
2021/01/19 05:00:12;;;;;;;60.15;25.30;;;;;;;-8.61;75.77;97646.16;4986540;28;20060;-62
2021/01/19 05:02:41;;;;;;;69.88;24.70;;;;;;;-8.47;74.39;97658.28;4988618;28;20030;-62
2021/01/19 05:05:31;;;;;;;55.17;21.38;;;;;;;-8.46;75.32;97654.56;4986811;28;20038;-61
2021/01/19 05:08:15;;;;;;;57.47;20.75;;;;;;;-8.47;75.55;97669.03;4988375;28;20038;-61
2021/01/19 05:10:47;;;;;;;50.72;22.60;;;;;;;-9.77;75.56;97488.97;4988352;28;20580;-62
2021/01/19 05:13:14;;;;;;;57.53;20.55;;;;;;;-8.81;75.99;97632.28;5002966;28;20030;-62
2021/01/19 05:15:44;;;;;;;55.88;18.35;;;;;;;-8.59;76.24;97660.16;4987925;28;20117;-60
2021/01/19 05:18:16;;;;;;;46.22;18.40;;;;;;;-8.52;76.23;97655.47;4988237;28;20595;-60
2021/01/19 05:20:47;;;;;;;59.42;22.25;;;;;;;-8.42;75.77;97661.06;4995430;28;20054;-60
2021/01/19 05:23:21;;;;;;;83.45;28.27;;;;;;;-8.33;75.67;97662.34;4988033;28;20034;-61
2021/01/19 05:25:57;;;;;;;88.38;29.92;;;;;;;-8.34;75.56;97676.84;4987604;28;20563;-61
2021/01/19 05:28:49;;;;;;;80.40;26.55;;;;;;;-8.74;75.19;97578.50;4988004;28;20050;-60
2021/01/19 05:31:15;;;;;;;81.68;27.40;;;;;;;-8.26;75.07;97660.34;4985602;28;20046;-61
2021/01/19 05:34:00;;;;;;;99.75;39.20;;;;;;;-8.28;75.01;97667.00;4988013;28;20076;-62
2021/01/19 05:36:34;;;;;;;87.88;29.50;;;;;;;-8.34;74.24;97666.09;4980126;28;20796;-61
2021/01/19 05:39:00;;;;;;;105.30;37.65;;;;;;;-8.33;74.18;97665.03;4988086;28;20038;-61
2021/01/19 05:41:42;;;;;;;96.18;30.38;;;;;;;-8.35;74.36;97666.31;4987469;28;20045;-60
2021/01/19 05:44:08;;;;;;;95.13;30.52;;;;;;;-8.61;75.19;97635.41;4995753;28;20041;-60
2021/01/19 05:46:34;;;;;;;84.40;30.25;;;;;;;-8.50;75.58;97661.44;5006303;28;20045;-62
2021/01/19 05:49:02;;;;;;;83.47;28.48;;;;;;;-8.41;75.24;97678.81;5005521;28;20096;-61
2021/01/19 05:51:29;;;;;;;74.43;28.52;;;;;;;-8.85;75.34;97590.84;5004759;28;20030;-61
2021/01/19 05:53:58;;;;;;;73.43;25.85;;;;;;;-8.30;75.13;97669.13;5005667;28;20128;-61
2021/01/19 05:56:25;;;;;;;58.88;22.38;;;;;;;-8.52;75.25;97650.09;5006634;28;20056;-60
2021/01/19 05:58:51;;;;;;;68.47;22.67;;;;;;;-9.61;74.60;97531.16;5004569;28;20500;-59
2021/01/19 06:01:21;;;;;;;86.15;26.25;;;;;;;-8.90;75.71;97590.75;5014484;28;20037;-58
2021/01/19 06:04:00;;;;;;;93.50;36.35;;;;;;;-8.82;75.66;97617.22;4987132;28;20149;-58
2021/01/19 06:06:26;;;;;;;93.90;37.40;;;;;;;-8.76;75.10;97597.50;4998633;28;20188;-57
2021/01/19 06:08:58;;;;;;;77.93;30.25;;;;;;;-8.94;75.38;97607.53;5006207;28;20147;-61
2021/01/19 06:11:24;;;;;;;59.40;24.00;;;;;;;-8.41;75.40;97678.81;5020759;28;20030;-57
2021/01/19 06:13:50;;;;;;;55.95;21.42;;;;;;;-8.44;75.45;97679.28;5021114;28;20060;-56
2021/01/19 06:16:16;;;;;;;41.80;17.00;;;;;;;-8.42;75.80;97671.00;5001313;28;20062;-63
2021/01/19 06:18:41;;;;;;;42.63;17.58;;;;;;;-8.35;75.56;97674.38;4996743;28;20523;-61
2021/01/19 06:21:07;;;;;;;51.00;17.48;;;;;;;-8.36;75.23;97676.25;5006232;28;20034;-59
2021/01/19 06:23:32;;;;;;;46.60;16.98;;;;;;;-9.39;75.13;97509.94;5002059;28;20145;-61
2021/01/19 06:26:05;;;;;;;68.75;24.33;;;;;;;-8.10;74.85;97678.41;5006105;28;20033;-61
2021/01/19 06:28:30;;;;;;;93.25;29.45;;;;;;;-8.89;75.08;97595.06;5006417;28;20042;-59
2021/01/19 06:30:55;;;;;;;69.38;24.50;;;;;;;-8.06;75.05;97687.59;5005157;28;20041;-60
2021/01/19 06:33:22;;;;;;;49.90;20.52;;;;;;;-9.41;74.20;97467.28;5002982;28;20348;-60
2021/01/19 06:35:54;;;;;;;70.07;25.00;;;;;;;-9.66;74.73;97410.44;4984003;28;20085;-61
2021/01/19 06:38:21;;;;;;;56.80;19.58;;;;;;;-9.18;74.30;97558.44;4986908;28;20510;-61
2021/01/19 06:40:48;;;;;;;47.97;17.95;;;;;;;-7.69;73.80;97681.88;4984451;28;20528;-59
2021/01/19 06:43:14;;;;;;;48.17;19.58;;;;;;;-7.61;73.88;97679.66;4994718;28;20069;-60
2021/01/19 06:45:46;;;;;;;52.15;19.75;;;;;;;-7.43;73.50;97682.16;5005779;28;20022;-60
2021/01/19 06:48:16;;;;;;;50.70;20.23;;;;;;;-7.53;72.27;97630.03;4989501;28;20485;-60
2021/01/19 06:50:43;;;;;;;48.33;17.40;;;;;;;-8.32;71.79;97510.91;4986038;28;20035;-62
2021/01/19 06:53:20;;;;;;;47.78;18.45;;;;;;;-6.94;71.19;97672.50;4986395;28;20753;-59
2021/01/19 06:55:58;;;;;;;49.05;21.58;;;;;;;-6.77;71.05;97670.63;4999784;28;20099;-58
2021/01/19 06:58:46;;;;;;;53.47;22.02;;;;;;;-6.67;70.86;97686.97;5005700;28;20038;-56
2021/01/19 07:01:14;;;;;;;44.67;19.20;;;;;;;-9.66;70.24;97206.78;4987826;28;20070;-60
2021/01/19 07:03:41;;;;;;;46.33;17.83;;;;;;;-6.32;69.94;97695.56;4986283;28;20136;-62
2021/01/19 07:06:09;;;;;;;48.60;20.38;;;;;;;-6.72;69.77;97616.84;4985647;28;20558;-57
2021/01/19 07:08:55;;;;;;;50.03;19.45;;;;;;;-5.99;69.50;97695.47;4986016;28;20078;-60
2021/01/19 07:12:02;;;;;;;66.00;24.80;;;;;;;-5.63;67.98;97700.25;4985634;28;20034;-58
2021/01/19 07:14:37;;;;;;;71.43;27.10;;;;;;;-5.79;67.63;97641.78;4983480;28;20600;-57
2021/01/19 07:17:08;;;;;;;88.65;35.17;;;;;;;-5.95;67.49;97675.06;4985447;28;20034;-61
2021/01/19 07:19:47;;;;;;;66.32;25.73;;;;;;;-5.92;66.63;97576.66;4985901;28;20610;-60
2021/01/19 07:22:52;;;;;;;52.85;21.77;;;;;;;-5.01;66.59;97698.75;4996622;28;20134;-62
2021/01/19 07:25:18;;;;;;;44.03;19.08;;;;;;;-4.87;66.26;97697.25;4997535;28;20135;-59
2021/01/19 07:27:44;;;;;;;40.50;16.35;;;;;;;-4.57;65.58;97688.63;5005487;28;20033;-57
2021/01/19 07:30:11;;;;;;;48.55;17.58;;;;;;;-4.53;65.47;97667.28;5004866;28;20069;-58
2021/01/19 07:32:39;;;;;;;38.33;17.40;;;;;;;-4.29;65.17;97682.03;5005002;28;20034;-61
2021/01/19 07:35:06;;;;;;;49.65;18.67;;;;;;;-3.90;64.75;97699.59;5005327;28;20124;-57
2021/01/19 07:37:36;;;;;;;47.30;19.60;;;;;;;-3.83;63.45;97663.13;4996677;28;20137;-59
2021/01/19 07:40:15;;;;;;;48.00;21.70;;;;;;;-3.83;62.87;97657.72;4985764;28;20049;-62
2021/01/19 07:42:41;;;;;;;39.60;15.98;;;;;;;-3.30;62.55;97699.84;4985899;28;20113;-62
2021/01/19 07:45:07;;;;;;;34.65;13.68;;;;;;;-3.28;61.45;97681.44;4984845;28;20125;-62
2021/01/19 07:47:41;;;;;;;30.40;12.48;;;;;;;-3.54;61.54;97682.47;4991383;28;20101;-62
2021/01/19 07:50:11;;;;;;;31.17;12.93;;;;;;;-2.98;61.77;97697.78;5004425;28;20049;-60
2021/01/19 07:52:47;;;;;;;26.10;12.88;;;;;;;-2.82;61.87;97691.31;4989041;28;20408;-59
2021/01/19 07:55:14;;;;;;;32.28;14.35;;;;;;;-2.59;60.66;97696.19;5004609;28;20794;-60
2021/01/19 07:57:41;;;;;;;32.88;15.93;;;;;;;-2.71;60.26;97655.00;5005021;28;20041;-61
2021/01/19 08:00:07;;;;;;;50.75;22.35;;;;;;;-2.19;60.17;97707.03;5004667;28;20085;-61
2021/01/19 08:02:33;;;;;;;50.97;21.52;;;;;;;-1.90;60.31;97694.50;5005034;28;20057;-58
2021/01/19 08:05:00;;;;;;;57.45;25.83;;;;;;;-1.78;59.57;97670.59;5000176;28;20477;-64
2021/01/19 08:07:39;;;;;;;60.47;27.48;;;;;;;-1.46;69.28;97696.53;4985646;28;20058;-60
2021/01/19 08:10:18;;;;;;;74.78;31.30;;;;;;;-1.26;60.54;97694.56;4984552;28;20062;-60
2021/01/19 08:12:46;;;;;;;79.25;29.83;;;;;;;-1.06;58.33;97710.75;5000228;28;20034;-63
2021/01/19 08:15:18;;;;;;;56.80;26.60;;;;;;;-0.90;55.52;97692.47;4983058;28;20517;-63
2021/01/19 08:17:49;;;;;;;58.78;24.77;;;;;;;-1.29;54.58;97648.91;4985330;28;20118;-62
2021/01/19 08:20:23;;;;;;;72.63;28.88;;;;;;;-0.83;54.48;97703.84;4984592;28;20042;-63
2021/01/19 08:22:48;;;;;;;79.53;33.90;;;;;;;-0.94;54.80;97734.88;4984551;28;20030;-63
2021/01/19 08:25:26;;;;;;;48.53;20.98;;;;;;;-0.78;54.68;97717.41;4985255;28;20084;-60
2021/01/19 08:27:52;;;;;;;30.65;13.43;;;;;;;-0.92;53.96;97672.91;4988549;28;20029;-59
2021/01/19 08:30:29;;;;;;;40.45;16.83;;;;;;;-0.80;53.58;97735.91;4990567;28;20037;-61
2021/01/19 08:32:56;;;;;;;33.42;15.80;;;;;;;-1.62;53.99;97581.72;5020541;28;20038;-65
2021/01/19 08:35:28;;;;;;;36.40;15.88;;;;;;;-0.69;53.42;97721.16;4988574;28;20042;-61
2021/01/19 08:38:01;;;;;;;34.38;14.25;;;;;;;-2.48;53.82;97502.56;4987328;28;20031;-60
2021/01/19 08:40:31;;;;;;;32.78;15.63;;;;;;;-0.64;52.71;97727.38;5001876;28;20436;-59
2021/01/19 08:42:57;;;;;;;36.42;15.95;;;;;;;-0.27;53.93;97729.56;5008351;28;20037;-61
2021/01/19 08:45:28;;;;;;;54.28;24.33;;;;;;;-0.05;52.33;97733.44;5008479;28;20035;-66
2021/01/19 08:47:56;;;;;;;34.20;15.55;;;;;;;0.19;50.83;97732.69;4997109;28;20030;-61
2021/01/19 08:50:22;;;;;;;29.23;13.27;;;;;;;-0.23;49.48;97676.16;5019164;28;20065;-64
2021/01/19 08:52:49;;;;;;;26.60;11.75;;;;;;;0.15;49.09;97705.22;5006015;28;20034;-63
2021/01/19 08:55:20;;;;;;;26.95;13.43;;;;;;;-0.81;49.42;97554.81;5007368;28;20088;-61
2021/01/19 08:57:50;;;;;;;24.05;12.05;;;;;;;0.17;49.08;97699.47;5013223;28;21219;-63
2021/01/19 09:00:37;;;;;;;24.65;11.55;;;;;;;0.45;48.68;97720.44;4991563;28;20041;-61
2021/01/19 09:03:11;;;;;;;26.45;12.02;;;;;;;0.28;49.21;97699.09;4987201;28;20026;-61
2021/01/19 09:05:36;;;;;;;26.02;11.18;;;;;;;0.51;48.35;97698.28;4998494;28;20105;-60
2021/01/19 09:08:12;;;;;;;27.17;12.63;;;;;;;0.51;49.26;97665.59;5005692;28;20069;-63
2021/01/19 09:10:37;;;;;;;25.13;12.93;;;;;;;0.91;46.77;97697.81;5019380;28;20034;-64
2021/01/19 09:13:03;;;;;;;34.67;16.38;;;;;;;1.18;47.73;97695.25;4986721;28;20576;-61
2021/01/19 09:15:36;;;;;;;32.17;13.60;;;;;;;0.57;45.74;97536.31;4987067;28;20125;-63
2021/01/19 09:18:02;;;;;;;27.95;12.93;;;;;;;1.30;43.69;97701.06;4988179;28;20030;-63
2021/01/19 09:20:28;;;;;;;34.70;15.38;;;;;;;1.34;43.71;97693.91;4986128;28;20057;-62
2021/01/19 09:22:54;;;;;;;38.42;15.85;;;;;;;1.35;44.98;97695.53;4988096;28;20030;-61
2021/01/19 09:25:22;;;;;;;24.67;12.00;;;;;;;1.38;44.96;97664.94;4986088;28;20031;-63
2021/01/19 09:27:48;;;;;;;29.17;13.93;;;;;;;1.76;44.15;97697.63;4987946;28;20031;-64
2021/01/19 09:30:16;;;;;;;30.92;14.90;;;;;;;1.70;44.56;97655.13;4987575;28;20429;-62
2021/01/19 09:32:43;;;;;;;25.65;12.55;;;;;;;2.10;43.89;97682.59;4986514;28;20029;-61
2021/01/19 09:35:14;;;;;;;20.70;9.60;;;;;;;1.58;41.66;97548.34;5002199;28;20047;-62
2021/01/19 09:37:40;;;;;;;37.47;16.98;;;;;;;2.10;41.81;97648.97;4987579;28;20034;-63
2021/01/19 09:40:07;;;;;;;22.80;10.18;;;;;;;2.37;42.86;97668.16;4987526;28;20171;-63
2021/01/19 09:42:39;;;;;;;25.08;11.93;;;;;;;2.25;42.55;97613.16;4986157;28;20030;-64
2021/01/19 09:45:08;;;;;;;24.30;11.23;;;;;;;1.95;41.17;97586.41;4997535;28;20320;-62
2021/01/19 09:47:34;;;;;;;21.10;9.93;;;;;;;2.48;40.85;97659.44;5007491;28;20041;-62
2021/01/19 09:49:59;;;;;;;20.73;9.35;;;;;;;2.59;40.48;97640.91;5007551;28;20042;-62
2021/01/19 09:52:30;;;;;;;21.85;9.52;;;;;;;3.07;40.38;97650.25;5005484;28;20116;-63
2021/01/19 09:55:12;;;;;;;25.60;10.88;;;;;;;3.32;39.27;97655.16;5001243;28;20485;-61
2021/01/19 09:57:38;;;;;;;16.20;8.50;;;;;;;3.43;38.51;97651.06;4988076;28;20029;-63
2021/01/19 10:00:07;;;;;;;14.30;7.43;;;;;;;3.30;36.68;97607.31;5001676;28;20038;-62
2021/01/19 10:02:32;;;;;;;16.77;8.90;;;;;;;3.15;37.15;97550.22;5002617;28;20030;-64
2021/01/19 10:05:02;;;;;;;17.45;8.05;;;;;;;3.26;38.29;97629.03;5002020;28;20045;-62
2021/01/19 10:07:29;;;;;;;23.38;10.82;;;;;;;3.73;37.56;97622.16;4987142;28;20117;-62
2021/01/19 10:10:09;;;;;;;25.48;11.80;;;;;;;3.53;38.29;97551.44;4987075;28;20120;-63
2021/01/19 10:12:34;;;;;;;23.98;11.80;;;;;;;4.44;37.23;97610.94;4987626;28;20026;-63
2021/01/19 10:15:00;;;;;;;65.70;35.10;;;;;;;5.00;36.75;97608.16;5002122;28;20476;-63
2021/01/19 10:17:32;;;;;;;81.13;43.95;;;;;;;4.79;35.48;97578.91;4986607;28;20033;-63
2021/01/19 10:20:10;;;;;;;23.63;13.43;;;;;;;4.72;35.46;97600.50;4987418;28;20073;-64
2021/01/19 10:22:41;;;;;;;26.45;14.35;;;;;;;4.93;36.74;97596.03;5001826;28;20352;-63
2021/01/19 10:25:09;;;;;;;20.20;11.00;;;;;;;4.85;35.53;97572.13;4987049;28;20132;-63
2021/01/19 10:27:44;;;;;;;17.73;8.52;;;;;;;4.53;35.38;97593.38;4985859;28;20030;-62
2021/01/19 10:30:13;;;;;;;30.45;13.27;;;;;;;4.07;36.04;97600.41;4987164;28;20045;-62
2021/01/19 10:32:49;;;;;;;22.33;14.27;;;;;;;1.86;35.98;97216.81;4986781;28;21112;-63
2021/01/19 10:35:26;;;;;;;13.38;8.38;;;;;;;4.05;36.97;97591.69;4986293;28;20430;-63
2021/01/19 10:38:06;;;;;;;18.38;8.05;;;;;;;4.45;36.52;97579.63;4986924;28;20470;-63
2021/01/19 10:40:33;;;;;;;14.52;8.15;;;;;;;4.15;36.60;97573.06;4986483;28;20034;-62
2021/01/19 10:43:08;;;;;;;20.67;12.30;;;;;;;4.23;36.42;97484.56;4987474;28;20019;-62
2021/01/19 10:45:34;;;;;;;24.52;10.18;;;;;;;4.77;36.11;97564.69;5001422;28;20030;-64
2021/01/19 10:48:01;;;;;;;22.40;11.48;;;;;;;4.84;35.63;97571.31;5006355;28;20036;-62
2021/01/19 10:50:29;;;;;;;18.98;9.43;;;;;;;5.03;35.37;97562.78;5004681;28;20045;-62
2021/01/19 10:52:59;;;;;;;17.10;8.73;;;;;;;4.83;34.34;97563.41;5006052;28;20049;-62
2021/01/19 10:55:25;;;;;;;24.63;13.00;;;;;;;4.31;36.11;97566.03;5005303;28;20038;-62
2021/01/19 10:57:55;;;;;;;22.60;11.65;;;;;;;4.19;36.28;97582.25;5006015;28;20049;-62
2021/01/19 11:00:22;;;;;;;25.88;11.65;;;;;;;4.15;36.55;97548.38;5005068;28;20041;-62
2021/01/19 11:02:48;;;;;;;23.38;11.05;;;;;;;4.21;37.27;97555.34;5004195;28;20489;-62
2021/01/19 11:05:13;;;;;;;23.52;11.55;;;;;;;3.90;37.64;97513.47;5005268;28;20049;-64
2021/01/19 11:07:47;;;;;;;26.25;11.90;;;;;;;3.88;37.35;97553.25;5005787;28;20029;-62
2021/01/19 11:10:13;;;;;;;;;;;;;;;4.00;36.82;97539.78;5005743;28;20433;-62
2021/01/19 11:12:39;;;;;;;21.10;9.80;;;;;;;3.08;37.20;97414.59;5005925;28;20003;-62
2021/01/19 11:15:07;;;;;;;20.98;9.43;;;;;;;4.05;36.44;97513.03;5005631;28;20048;-63
2021/01/19 11:17:33;;;;;;;16.92;9.23;;;;;;;2.52;36.93;97408.09;4988786;28;20037;-64
2021/01/19 11:19:58;;;;;;;18.15;10.55;;;;;;;3.91;36.91;97526.03;4986293;28;20046;-64
2021/01/19 11:22:24;;;;;;;29.60;12.68;;;;;;;3.96;36.78;97517.69;4983917;28;20027;-63
2021/01/19 11:24:49;;;;;;;25.77;12.40;;;;;;;3.69;37.67;97520.59;4986215;28;20074;-65
2021/01/19 11:27:14;;;;;;;27.45;13.02;;;;;;;2.89;38.39;97415.94;4985566;28;20039;-62
2021/01/19 11:29:42;;;;;;;21.45;10.93;;;;;;;2.71;38.43;97386.84;4985742;28;20524;-62
2021/01/19 11:32:07;;;;;;;22.00;10.52;;;;;;;3.57;39.39;97525.03;4983852;28;20039;-64